This is the latest recevied weather packets stored in our database for station/object EA1FLU-10. If no packets are shown the sender has not sent any weather packets the latest 10 day(s).
| Time | Temp. | Humidity | Pressure | Rain* | Wind** | Luminosity | Snow |
|---|---|---|---|---|---|---|---|
| 1777639535 | 25° C | 41% | 1023.9 hPa | - | - | - | - |
| 1777637734 | 25° C | 41% | 1024 hPa | - | - | - | - |
| 1777635934 | 25° C | 42% | 1024 hPa | - | - | - | - |
| 1777634134 | 25° C | 43% | 1024.2 hPa | - | - | - | - |
| 1777632337 | 24.44° C | 44% | 1024.3 hPa | - | - | - | - |
| 1777630533 | 23.89° C | 45% | 1024.4 hPa | - | - | - | - |
| 1777628733 | 22.78° C | 46% | 1024.3 hPa | - | - | - | - |
| 1777626933 | 21.11° C | 51% | 1024.6 hPa | - | - | - | - |
| 1777625132 | 19.44° C | 55% | 1024.4 hPa | - | - | - | - |
| 1777623332 | 18.89° C | 55% | 1024.2 hPa | - | - | - | - |
| 1777621532 | 18.89° C | 55% | 1024.2 hPa | - | - | - | - |
| 1777619732 | 17.78° C | 58% | 1024.1 hPa | - | - | - | - |
| 1777617932 | 16.11° C | 58% | 1024.1 hPa | - | - | - | - |
| 1777616132 | 15° C | 60% | 1024.2 hPa | - | - | - | - |
| 1777614332 | 14.44° C | 59% | 1024.1 hPa | - | - | - | - |
| 1777612532 | 14.44° C | 59% | 1024.2 hPa | - | - | - | - |
| 1777610735 | 14.44° C | 59% | 1024.1 hPa | - | - | - | - |
| 1777608932 | 14.44° C | 58% | 1024.1 hPa | - | - | - | - |
| 1777607133 | 15° C | 58% | 1024.1 hPa | - | - | - | - |
| 1777605331 | 15° C | 57% | 1024.2 hPa | - | - | - | - |
| 1777603531 | 15° C | 57% | 1024.1 hPa | - | - | - | - |
| 1777601731 | 15° C | 57% | 1024.2 hPa | - | - | - | - |
| 1777599931 | 15.56° C | 56% | 1024.2 hPa | - | - | - | - |
| 1777598131 | 15.56° C | 56% | 1024.2 hPa | - | - | - | - |
| 1777596331 | 16.11° C | 55% | 1024.3 hPa | - | - | - | - |
* Rain since midnight (hover to see other rain measurements)
** Current wind speed in m/s (hover to see current wind gust speed)